M I D A S
Marine Information and Data Acquisition System
Tripno 68 of the Zeeleeuw from 2001-11-29 08:50:00 to 2001-11-29 17:00:00
Back to CruiseResearch ActivitiesStationsMapUnderway DataData graphs

EquipmentUnitsComment
TimeDGPSUTC
LatitudeDGPSDM.mWGS84
LongitudeDGPSDM.mWGS84
TemperatureSBE03/SBE38deg celciusITS90
ConductivitySBE21S/mITS90
SalinitySBE21 Practical Salinity Units
ChlorophylAChelsea fluorimeterg/lCalibrated in Aceton
Missing or incorrect values are displayed as -999
Sea surface data collected by the RV Zeeleeuw from 2001-11-29 08:50:00 to 2001-11-29 17:00:00
Time Latitude Longitude Temperature Conductivity Salinity ChlorophylA
2001-11-29 08:51:03 51°20.503 2°58.658 21.404091 0.008754 0.048003  
2001-11-29 08:52:03 51°20.709 2°58.525 20.484499 0.008754 0.048006  
2001-11-29 08:53:03 51°20.917 2°58.396 20.682385 0.008655 0.047539  
2001-11-29 08:54:03 51°21.123 2°58.266 20.827587 0.008655 0.04754  
2001-11-29 08:55:03 51°21.329 2°58.133 20.980793 0.008655 0.047543  
2001-11-29 08:56:03 51°21.533 2°58.003 20.959999 0.008556 0.047075  
2001-11-29 08:57:03 51°21.736 2°57.866 20.772456 0.008556 0.047075  
2001-11-29 08:58:03 51°21.949 2°57.754 20.148175 0.008556 0.047077  
2001-11-29 08:59:03 51°22.158 2°57.637 20.759687 0.008458 0.04661  
2001-11-29 09:00:03 51°22.368 2°57.523 20.908446 0.008458 0.046611  
2001-11-29 09:01:03 51°22.577 2°57.401 20.316356 0.008458 0.046611  
2001-11-29 09:02:03 51°22.785 2°57.275 20.969139 0.008458 0.046612  
2001-11-29 09:03:03 51°22.996 2°57.153 20.69104 0.008359 0.046144  
2001-11-29 09:04:02 51°23.2 2°57.034 20.375547 0.008359 0.046146  
2001-11-29 09:05:03 51°23.406 2°56.889 18.935261 0.008359 0.04612  
2001-11-29 09:06:03 51°23.608 2°56.752 18.864479 0.008359 0.046151  
2001-11-29 09:07:03 51°23.803 2°56.596 18.851523 0.008261 0.045681  
2001-11-29 09:08:03 51°24 2°56.451 18.819925 0.008261 0.045683  
2001-11-29 09:09:03 51°24.195 2°56.305 18.820913 0.008261 0.045685  
2001-11-29 09:10:03 51°24.394 2°56.16 18.844448 0.008261 0.045686  
2001-11-29 09:11:03 51°24.599 2°56.02 18.775673 0.008162 0.045221  
2001-11-29 09:12:03 51°24.802 2°55.872 18.751497 0.008162 0.045222  
2001-11-29 09:13:02 51°25.001 2°55.724 18.775055 0.008162 0.045222  
2001-11-29 09:14:01 51°25.199 2°55.59 18.764307 0.008162 0.045223  
2001-11-29 09:15:02 51°25.403 2°55.459 18.720349 0.008063 0.044757  
2001-11-29 09:16:03 51°25.603 2°55.308 18.778843 0.008063 0.044758  
2001-11-29 09:17:03 51°25.805 2°55.176 18.718412 0.008063 0.044758  
2001-11-29 09:18:03 51°26.009 2°55.044 18.708025 0.008063 0.044759  
2001-11-29 09:19:01 51°26.205 2°54.909 18.702131 0.007965 0.044297  
2001-11-29 09:20:01 51°26.41 2°54.773 18.681806 0.007965 0.044296  
2001-11-29 09:21:03 51°26.627 2°54.645 18.709386 0.007965 0.044297  
2001-11-29 09:22:03 51°26.837 2°54.511 18.664568 0.007965 0.044298  
2001-11-29 09:23:03 51°27.047 2°54.382 18.65966 0.007866 0.043833  
2001-11-29 09:24:03 51°27.255 2°54.243 19.805166 0.007866 0.04384  
2001-11-29 09:25:03 51°27.453 2°54.078 20.264614 0.007866 0.043838  
2001-11-29 09:26:02 51°27.647 2°53.922 20.132506 0.007866 0.043833  
2001-11-29 09:27:03 51°27.843 2°53.762 20.291578 0.007768 0.043375  
2001-11-29 09:28:03 51°28.041 2°53.605 20.58016 0.007768 0.043373  
2001-11-29 09:29:03 51°28.237 2°53.45 19.635349 0.007768 0.043373  
2001-11-29 09:30:03 51°28.434 2°53.286 20.282913 0.007768 0.043375  
2001-11-29 09:31:03 51°28.632 2°53.133 20.035265 0.007768 0.043376  
2001-11-29 09:32:03 51°28.828 2°52.976 19.608417 0.007768 0.043377  
2001-11-29 09:33:03 51°29.024 2°52.814 19.951941 0.007669 0.042912  
2001-11-29 09:34:03 51°29.218 2°52.649 19.970605 0.007669 0.042913  
2001-11-29 09:35:03 51°29.39 2°52.434 19.120715 0.007669 0.042915  
2001-11-29 09:36:03 51°29.391 2°52.172 20.326346 0.00757 0.042451  
2001-11-29 09:37:03 51°29.343 2°51.987 19.841878 0.00757 0.042454  
2001-11-29 09:38:03 51°29.287 2°51.773 19.547029 0.00757 0.042454  
2001-11-29 09:39:03 51°29.232 2°51.55 20.001081 0.00757 0.042456  
2001-11-29 09:40:03 51°29.17 2°51.321 19.625953 0.007472 0.041992  
2001-11-29 09:41:03 51°29.113 2°51.096 19.978013 0.007472 0.041994  
2001-11-29 09:42:03 51°29.057 2°50.885 19.523485 0.007472 0.041994  
2001-11-29 09:43:03 51°28.996 2°50.659 19.916866 0.007472 0.041997  
2001-11-29 09:44:03 51°28.944 2°50.433 20.214406 0.007373 0.041533  
2001-11-29 09:45:03 51°28.893 2°50.212 19.713443 0.007373 0.041534  
2001-11-29 09:46:03 51°28.838 2°49.976 19.501075 0.007373 0.041536  
2001-11-29 09:47:03 51°28.789 2°49.754 19.955423 0.007373 0.041537  
2001-11-29 09:48:03 51°28.744 2°49.541 19.247745 0.007373 0.041539  
2001-11-29 09:49:03 51°28.701 2°49.35 19.353475 0.007275 0.041078  
2001-11-29 09:50:03 51°28.659 2°49.144 20.014675 0.007275 0.041079  
2001-11-29 09:51:01 51°28.593 2°48.952 19.512811 0.007275 0.041082  
2001-11-29 09:52:01 51°28.452 2°48.896 19.472134 0.007275 0.041083  
2001-11-29 09:53:03 51°28.268 2°48.938 19.44257 0.007275 0.041082  
2001-11-29 09:54:03 51°28.074 2°48.986 19.839161 0.007176 0.040619  
2001-11-29 09:55:03 51°27.879 2°49.053 19.876098 0.007176 0.040619  
2001-11-29 09:56:03 51°27.685 2°49.142 19.599384 0.007176 0.040619  
2001-11-29 09:57:03 51°27.492 2°49.265 19.784306 0.007176 0.040618  
2001-11-29 09:58:03 51°27.292 2°49.389 20.244414 0.007176 0.040623  
2001-11-29 09:59:03 51°27.098 2°49.543 20.059325 0.007176 0.040621  
2001-11-29 10:00:03 51°26.902 2°49.682 20.149306 0.007077 0.040159  
2001-11-29 10:01:03 51°26.705 2°49.825 19.724046 0.007077 0.04016  
2001-11-29 10:02:03 51°26.509 2°49.971 19.810846 0.007077 0.040161  
2001-11-29 10:03:03 51°26.313 2°50.12 19.808006 0.007077 0.040163  
2001-11-29 10:04:03 51°26.116 2°50.26 19.289492 0.007077 0.040164  
2001-11-29 10:05:03 51°25.985 2°50.179 20.107097 0.007077 0.040167  
2001-11-29 10:06:03 51°25.924 2°50.02 19.999422 0.006979 0.039706  
2001-11-29 10:07:03 51°25.859 2°49.854 19.878895 0.006979 0.039707  
2001-11-29 10:08:03 51°25.797 2°49.673 19.729002 0.006979 0.039709  
2001-11-29 10:09:03 51°25.723 2°49.472 20.219812 0.006979 0.03971  
2001-11-29 10:10:03 51°25.651 2°49.274 19.878814 0.00688 0.039249  
2001-11-29 10:11:03 51°25.576 2°49.08 20.17922 0.00688 0.03925  
2001-11-29 10:12:03 51°25.496 2°48.873 20.195968 0.00688 0.039251  
2001-11-29 10:13:03 51°25.417 2°48.66 19.926426 0.00688 0.039253  
2001-11-29 10:14:03 51°25.336 2°48.436 20.019206 0.00688 0.039254  
2001-11-29 10:15:03 51°25.254 2°48.211 20.295446 0.00688 0.039256  
2001-11-29 10:16:03 51°25.167 2°47.989 19.86191 0.006782 0.038794  
2001-11-29 10:17:03 51°25.08 2°47.761 20.064338 0.006782 0.038796  
2001-11-29 10:18:03 51°24.998 2°47.543 20.182489 0.006782 0.038797  
2001-11-29 10:19:03 51°24.914 2°47.319 20.475536 0.006782 0.038799  
2001-11-29 10:20:03 51°24.831 2°47.091 20.164163 0.006782 0.0388  
2001-11-29 10:21:03 51°24.749 2°46.85 20.097683 0.006683 0.03834  
2001-11-29 10:22:03 51°24.681 2°46.581 20.482007 0.006683 0.03834  
2001-11-29 10:23:03 51°24.772 2°46.332 20.190117 0.006683 0.038338  
2001-11-29 10:24:03 51°24.99 2°46.252 20.156573 0.006683 0.038343  
2001-11-29 10:25:03 51°25.188 2°46.09 19.965302 0.006683 0.038347  
2001-11-29 10:26:03 51°25.387 2°45.927 20.537928 0.006683 0.038347  
2001-11-29 10:27:03 51°25.592 2°45.77 20.456161 0.006683 0.038349  
2001-11-29 10:28:03 51°25.797 2°45.612 20.407217 0.006683 0.03835  
2001-11-29 10:29:03 51°25.997 2°45.45 20.16929 0.006585 0.037886  
2001-11-29 10:30:03 51°26.205 2°45.31 20.15726 0.006585 0.037888  
2001-11-29 10:31:03 51°26.413 2°45.161 19.883678 0.006585 0.037889  
2001-11-29 10:32:03 51°26.618 2°44.997 20.355823 0.006585 0.03789  
2001-11-29 10:33:03 51°26.828 2°44.854 19.806342 0.006585 0.0379  
2001-11-29 10:34:03 51°27.033 2°44.704 20.210856 0.006585 0.037895  
2001-11-29 10:35:03 51°27.229 2°44.555 20.297138 0.006486 0.037433  
2001-11-29 10:36:03 51°27.309 2°44.367 20.659659 0.006486 0.037435  
2001-11-29 10:37:03 51°27.265 2°44.205 20.16493 0.006486 0.037435  
2001-11-29 10:38:03 51°27.215 2°44.026 20.209404 0.006486 0.037436  
2001-11-29 10:39:03 51°27.161 2°43.832 20.085317 0.006486 0.037437  
2001-11-29 10:40:03 51°27.105 2°43.635 20.106895 0.006486 0.037439  
2001-11-29 10:41:03 51°27.054 2°43.446 20.968501 0.006387 0.036977  
2001-11-29 10:42:03 51°26.997 2°43.246 20.277311 0.006387 0.036978  
2001-11-29 10:43:03 51°26.947 2°43.057 20.40098 0.006387 0.03698  
2001-11-29 10:44:03 51°26.893 2°42.857 20.977361 0.006387 0.03698  
2001-11-29 10:45:03 51°26.838 2°42.662 20.339918 0.006387 0.036982  
2001-11-29 10:46:03 51°26.779 2°42.453 19.918 0.006387 0.036983  
2001-11-29 10:47:03 51°26.721 2°42.246 20.231348 0.006289 0.036522  
2001-11-29 10:48:03 51°26.67 2°42.056 20.398687 0.006289 0.036523  
2001-11-29 10:49:03 51°26.613 2°41.859 20.254615 0.006289 0.036525  
2001-11-29 10:50:03 51°26.573 2°41.696 20.241793 0.006289 0.036528  
2001-11-29 10:51:03 51°26.53 2°41.533 20.476983 0.006289 0.036527  
2001-11-29 10:52:03 51°26.472 2°41.342 20.322922 0.006289 0.036529  
2001-11-29 10:53:03 51°26.414 2°41.148 20.548207 0.00619 0.036068  
2001-11-29 10:54:03 51°26.34 2°40.991 20.265541 0.00619 0.03607  
2001-11-29 10:55:03 51°26.211 2°41.028 20.283558 0.00619 0.036069  
2001-11-29 10:56:03 51°26.046 2°41.157 20.185476 0.00619 0.036067  
2001-11-29 10:57:03 51°25.861 2°41.258 20.23167 0.00619 0.03607  
2001-11-29 10:58:03 51°25.679 2°41.361 20.09154 0.00619 0.03607  
2001-11-29 10:59:03 51°25.493 2°41.447 20.851419 0.00619 0.036073  
2001-11-29 11:00:03 51°25.308 2°41.536 20.215697 0.00619 0.036074  
2001-11-29 11:01:03 51°25.14 2°41.622 20.846781 0.00619 0.036075  
2001-11-29 11:02:03 51°24.993 2°41.706 20.323365 0.006092 0.035616  
2001-11-29 11:03:03 51°24.857 2°41.791 20.207871 0.006092 0.035615  
2001-11-29 11:04:03 51°24.716 2°41.874 20.948581 0.006092 0.035617  
2001-11-29 11:05:03 51°24.572 2°41.957 20.773256 0.006092 0.035619  
2001-11-29 11:06:03 51°24.41 2°42.042 20.839064 0.006092 0.035619  
2001-11-29 11:07:02 51°24.24 2°42.131 20.334078 0.006092 0.035621  
2001-11-29 11:08:03 51°24.059 2°42.188 20.254656 0.006092 0.035622  
2001-11-29 11:09:03 51°23.89 2°42.154 20.40255 0.006092 0.035623  
2001-11-29 11:10:03 51°23.751 2°42.102 20.820428 0.006092 0.035626  
2001-11-29 11:11:02 51°23.626 2°42.054 20.239494 0.006092 0.035626  
2001-11-29 11:12:03 51°23.485 2°41.988 21.006608 0.005993 0.035165  
2001-11-29 11:13:03 51°23.348 2°41.904 20.553346 0.005993 0.035166  
2001-11-29 11:14:03 51°23.209 2°41.832 20.91967 0.005993 0.035167  
2001-11-29 11:15:03 51°23.078 2°41.735 20.432035 0.005993 0.035167  
2001-11-29 11:16:03 51°22.95 2°41.628 20.736705 0.005993 0.035167  
2001-11-29 11:17:03 51°22.823 2°41.533 20.840743 0.005993 0.035168  
2001-11-29 11:18:03 51°22.697 2°41.432 20.706105 0.005993 0.035168  
2001-11-29 11:19:03 51°22.569 2°41.332 20.666233 0.005993 0.035169  
2001-11-29 11:20:03 51°22.446 2°41.237 20.214729 0.005993 0.03517  
2001-11-29 11:21:03 51°22.319 2°41.133 20.733502 0.005894 0.034709  
2001-11-29 11:22:03 51°22.191 2°41.031 20.516199 0.005894 0.034709  
2001-11-29 11:23:03 51°22.069 2°40.935 20.663226 0.005894 0.034709  
2001-11-29 11:24:03 51°21.943 2°40.83 20.830226 0.005894 0.034709  
2001-11-29 11:25:03 51°21.811 2°40.719 20.572855 0.005894 0.034709  
2001-11-29 11:26:03 51°21.684 2°40.613 20.740309 0.005894 0.03471  
2001-11-29 11:27:03 51°21.554 2°40.501 20.755083 0.005894 0.03471  
2001-11-29 11:28:03 51°21.428 2°40.388 20.73238 0.005894 0.034709  
2001-11-29 11:29:03 51°21.306 2°40.289 20.845102 0.005796 0.034251  
2001-11-29 11:30:03 51°21.179 2°40.178 20.578113 0.005894 0.034711  
2001-11-29 11:31:03 51°21.053 2°40.073 20.830706 0.005796 0.034251  
2001-11-29 11:32:04 51°20.927 2°39.96 20.639692 0.005796 0.034251  
2001-11-29 11:33:03 51°20.804 2°39.872 21.141115 0.005796 0.034251  
2001-11-29 11:34:03 51°20.673 2°39.78 20.675892 0.005796 0.034251  
2001-11-29 11:35:03 51°20.541 2°39.685 20.884354 0.005796 0.034252  
2001-11-29 11:36:03 51°20.412 2°39.594 21.072239 0.005796 0.034253  
2001-11-29 11:37:03 51°20.284 2°39.506 21.149197 0.005796 0.034252  
2001-11-29 11:38:03 51°20.159 2°39.415 21.098021 0.005796 0.034252  
2001-11-29 11:39:03 51°20.031 2°39.32 21.372825 0.005697 0.033793  
2001-11-29 11:40:03 51°19.898 2°39.221 20.892905 0.005796 0.034253  
2001-11-29 11:41:03 51°19.764 2°39.118 20.699575 0.005697 0.033794  
2001-11-29 11:42:03 51°19.634 2°39.025 20.949699 0.005697 0.033794  
2001-11-29 11:43:03 51°19.503 2°38.925 20.590072 0.005697 0.033794  
2001-11-29 11:44:03 51°19.372 2°38.821 20.86597 0.005697 0.033795  
2001-11-29 11:45:03 51°19.239 2°38.721 20.743552 0.005697 0.033795  
2001-11-29 11:46:03 51°19.107 2°38.622 20.736545 0.005697 0.033795  
2001-11-29 11:47:03 51°18.973 2°38.515 20.758446 0.005697 0.033796  
2001-11-29 11:48:03 51°18.837 2°38.411 21.236689 0.005697 0.033796  
2001-11-29 11:49:03 51°18.701 2°38.304 20.88823 0.005697 0.033796  
2001-11-29 11:50:03 51°18.566 2°38.199 20.666152 0.005697 0.033796  
2001-11-29 11:51:03 51°18.43 2°38.093 20.483976 0.005697 0.033797  
2001-11-29 11:52:03 51°18.293 2°37.987 21.306597 0.005599 0.033339  
2001-11-29 11:53:03 51°18.16 2°37.885 20.570126 0.005599 0.033338  
2001-11-29 11:54:03 51°18.029 2°37.786 21.03325 0.005599 0.033338  
2001-11-29 11:55:03 51°17.898 2°37.69 21.072917 0.005599 0.033339  
2001-11-29 11:56:03 51°17.767 2°37.592 21.38588 0.005599 0.033339  
2001-11-29 11:57:03 51°17.633 2°37.491 21.218475 0.005599 0.03334  
2001-11-29 11:58:03 51°17.501 2°37.392 21.420274 0.005599 0.03334  
2001-11-29 11:59:03 51°17.371 2°37.295 20.922945 0.005599 0.03334  
2001-11-29 12:00:03 51°17.237 2°37.196 20.820868 0.005599 0.033341  
2001-11-29 12:01:03 51°17.11 2°37.108 21.023799 0.005599 0.033341  
2001-11-29 12:02:03 51°16.982 2°37.004 21.399727 0.005599 0.033342  
2001-11-29 12:03:01 51°16.864 2°36.888 20.818188 0.005599 0.033342  
2001-11-29 12:04:03 51°16.731 2°36.768 20.9263 0.005599 0.033342  
2001-11-29 12:05:03 51°16.604 2°36.65 21.331936 0.0055 0.032884  
2001-11-29 12:06:03 51°16.494 2°36.514 20.774297 0.0055 0.032884  
2001-11-29 12:07:03 51°16.395 2°36.36 21.055697 0.0055 0.032884  
2001-11-29 12:08:01 51°16.293 2°36.209 20.947344 0.0055 0.032885  
2001-11-29 12:09:03 51°16.183 2°36.055 21.102881 0.0055 0.032884  
2001-11-29 12:10:03 51°16.083 2°35.908 21.26253 0.0055 0.032885  
2001-11-29 12:11:01 51°15.985 2°35.766 20.631712 0.0055 0.032885  
2001-11-29 12:12:03 51°15.878 2°35.611 21.426143 0.0055 0.032886  
2001-11-29 12:13:03 51°15.775 2°35.458 21.032892 0.0055 0.032886  
2001-11-29 12:14:03 51°15.669 2°35.309 21.246987 0.0055 0.032886  
2001-11-29 12:15:03 51°15.564 2°35.163 21.179129 0.0055 0.032887  
2001-11-29 12:16:03 51°15.461 2°35.014 21.590568 0.0055 0.032887  
2001-11-29 12:17:02 51°15.358 2°34.87 21.238041 0.0055 0.032887  
2001-11-29 12:18:03 51°15.252 2°34.712 21.170055 0.0055 0.032887  
2001-11-29 12:19:03 51°15.137 2°34.552 21.078656 0.0055 0.032887  
2001-11-29 12:20:03 51°15.021 2°34.404 21.491943 0.0055 0.032888  
2001-11-29 12:21:03 51°14.894 2°34.215 21.036401 0.005401 0.032431  
2001-11-29 12:22:03 51°14.758 2°34.019 21.042262 0.005401 0.03243  
2001-11-29 12:23:03 51°14.588 2°33.932 21.639177 0.005401 0.032432  
2001-11-29 12:24:03 51°14.445 2°34.185 21.000145 0.005401 0.032431  
2001-11-29 12:25:03 51°14.334 2°34.511 21.201609 0.005401 0.032429  
2001-11-29 12:26:03 51°14.241 2°34.848 20.850899 0.005401 0.032436  
2001-11-29 12:27:03 51°14.165 2°35.207 21.508502 0.005401 0.032436  
2001-11-29 12:28:03 51°14.101 2°35.569 21.419837 0.005401 0.032437  
2001-11-29 12:29:03 51°14.014 2°35.915 21.350954 0.005401 0.032437  
2001-11-29 12:30:03 51°14.006 2°36.285 20.808228 0.005401 0.032438  
2001-11-29 12:31:01 51°14.042 2°36.653 21.193374 0.005401 0.032442  
2001-11-29 12:32:01 51°14.066 2°37.044 21.12897 0.005401 0.032442  
2001-11-29 12:33:03 51°14.096 2°37.451 21.063391 0.005401 0.032443  
2001-11-29 12:34:03 51°14.128 2°37.849 20.636725 0.005401 0.032445  
2001-11-29 12:35:01 51°14.155 2°38.237 20.988215 0.005401 0.032445  
2001-11-29 12:36:01 51°14.126 2°38.611 21.091486 0.005401 0.032444  
2001-11-29 12:37:03 51°13.995 2°38.912 21.244243 0.005401 0.032449  
2001-11-29 12:38:03 51°13.813 2°39.087 21.151267 0.005401 0.032448  
2001-11-29 12:39:03 51°13.623 2°39.035 20.995078 0.005401 0.032449  
2001-11-29 12:40:03 51°13.472 2°38.841 21.312714 0.005303 0.031994  
2001-11-29 12:41:03 51°13.331 2°38.627 21.390483 0.005303 0.031995  
2001-11-29 12:42:03 51°13.176 2°38.435 21.846293 0.005303 0.031995  
2001-11-29 12:43:03 51°13.028 2°38.227 21.480254 0.005303 0.031996  
2001-11-29 12:44:03 51°12.88 2°38.017 21.410913 0.005303 0.031996  
2001-11-29 12:45:03 51°12.73 2°37.808 21.222373 0.005303 0.031997  
2001-11-29 12:46:03 51°12.576 2°37.611 21.326694 0.005303 0.031997  
2001-11-29 12:47:03 51°12.42 2°37.411 21.142787 0.005303 0.031997  
2001-11-29 12:48:03 51°12.265 2°37.21 21.605324 0.005303 0.031997  
2001-11-29 12:49:03 51°12.109 2°37.011 21.28856 0.005303 0.031998  
2001-11-29 12:50:03 51°11.952 2°36.809 21.535512 0.005303 0.031999  
2001-11-29 12:51:03 51°11.796 2°36.608 21.665544 0.005303 0.031999  
2001-11-29 12:52:03 51°11.639 2°36.407 21.936004 0.005303 0.031999  
2001-11-29 12:53:03 51°11.484 2°36.206 21.833913 0.005303 0.031999  
2001-11-29 12:54:03 51°11.328 2°36.003 21.814589 0.005303 0.032  
2001-11-29 12:55:03 51°11.171 2°35.802 21.470901 0.005303 0.032  
2001-11-29 12:56:03 51°11.014 2°35.6 20.881157 0.005303 0.032  
2001-11-29 12:57:03 51°10.858 2°35.399 21.406352 0.005303 0.032001  
2001-11-29 12:58:03 51°10.702 2°35.196 20.898978 0.005303 0.032001  
2001-11-29 12:59:02 51°10.551 2°34.996 21.531156 0.005303 0.032001  
2001-11-29 13:00:03 51°10.388 2°34.8 21.553565 0.005204 0.031544  
2001-11-29 13:01:03 51°10.228 2°34.607 21.554673 0.005303 0.032002  
2001-11-29 13:02:03 51°10.068 2°34.413 21.564569 0.005303 0.032003  
2001-11-29 13:03:03 51°9.909 2°34.215 21.402623 0.005204 0.031545  
2001-11-29 13:04:03 51°9.746 2°34.021 21.385801 0.005204 0.031545  
2001-11-29 13:05:03 51°9.586 2°33.824 21.580201 0.005204 0.031546  
2001-11-29 13:06:03 51°9.407 2°33.693 20.821428 0.005204 0.031547  
2001-11-29 13:07:03 51°9.24 2°33.897 21.746205 0.005204 0.031547  
2001-11-29 13:08:03 51°9.196 2°34.256 21.442956 0.005204 0.031548  
2001-11-29 13:09:03 51°9.249 2°34.64 21.265431 0.005204 0.031548  
2001-11-29 13:10:03 51°9.297 2°35.031 21.464402 0.005204 0.031549  
2001-11-29 13:11:02 51°9.344 2°35.415 21.558355 0.005204 0.03155  
2001-11-29 13:12:03 51°9.393 2°35.811 21.320816 0.005204 0.031551  
2001-11-29 13:13:03 51°9.442 2°36.203 20.864091 0.005204 0.031552  
2001-11-29 13:14:03 51°9.491 2°36.589 21.318116 0.005204 0.031552  
2001-11-29 13:15:03 51°9.538 2°36.976 21.795616 0.005204 0.031553  
2001-11-29 13:16:03 51°9.586 2°37.359 21.611099 0.005204 0.031554  
2001-11-29 13:17:02 51°9.631 2°37.73 21.607935 0.005204 0.031555  
2001-11-29 13:18:03 51°9.685 2°38.112 20.705985 0.005204 0.031555  
2001-11-29 13:19:03 51°9.745 2°38.483 22.210424 0.005204 0.031555  
2001-11-29 13:20:03 51°9.827 2°38.846 22.0081 0.005204 0.031555  
2001-11-29 13:21:03 51°9.905 2°39.211 21.911903 0.005204 0.031556  
2001-11-29 13:22:03 51°9.985 2°39.576 21.894964 0.005204 0.031557  
2001-11-29 13:23:02 51°10.057 2°39.933 21.371753 0.005204 0.031557  
2001-11-29 13:24:03 51°10.137 2°40.298 21.895516 0.005204 0.031558  
2001-11-29 13:25:03 51°10.22 2°40.662 21.654714 0.005106 0.0311  
2001-11-29 13:26:03 51°10.299 2°41.023 21.366554 0.005106 0.031101  
2001-11-29 13:27:03 51°10.378 2°41.386 21.271314 0.005106 0.031102  
2001-11-29 13:28:03 51°10.46 2°41.744 21.62945 0.005106 0.031102  
2001-11-29 13:29:02 51°10.542 2°42.097 21.673883 0.005106 0.031102  
2001-11-29 13:30:03 51°10.626 2°42.465 21.470664 0.005106 0.031102  
2001-11-29 13:31:03 51°10.716 2°42.824 21.463926 0.005106 0.031103  
2001-11-29 13:32:03 51°10.841 2°43.161 21.751732 0.005106 0.031103  
2001-11-29 13:33:03 51°10.946 2°43.513 22.046991 0.005106 0.031103  
2001-11-29 13:34:02 51°11.041 2°43.862 21.35536 0.005106 0.031104  
2001-11-29 13:35:02 51°11.143 2°44.218 21.573236 0.005106 0.031105  
2001-11-29 13:36:02 51°11.244 2°44.572 21.754732 0.005106 0.031105  
2001-11-29 13:37:02 51°11.345 2°44.919 21.721843 0.005106 0.031105  
2001-11-29 13:38:02 51°11.451 2°45.261 21.559146 0.005106 0.031105  
2001-11-29 13:39:02 51°11.557 2°45.603 21.743284 0.005106 0.031105  
2001-11-29 13:40:02 51°11.667 2°45.944 21.124669 0.005106 0.031106  
2001-11-29 13:41:02 51°11.777 2°46.287 21.454968 0.005106 0.031106  
2001-11-29 13:42:02 51°11.883 2°46.629 21.849289 0.005106 0.031106  
2001-11-29 13:43:02 51°11.991 2°46.973 21.573315 0.005106 0.031106  
2001-11-29 13:44:02 51°12.104 2°47.324 21.622094 0.005106 0.031106  
2001-11-29 13:45:03 51°12.215 2°47.67 21.422653 0.005106 0.031107  
2001-11-29 13:46:03 51°12.329 2°48.017 21.432686 0.005106 0.031107  
2001-11-29 13:47:03 51°12.439 2°48.365 21.702212 0.005106 0.031107  
2001-11-29 13:48:03 51°12.546 2°48.71 21.854414 0.005106 0.031107  
2001-11-29 13:49:03 51°12.661 2°49.052 21.752877 0.005106 0.031107  
2001-11-29 13:50:03 51°12.768 2°49.401 22.060277 0.005106 0.031108  
2001-11-29 13:51:03 51°12.882 2°49.748 21.581586 0.005106 0.031105  
2001-11-29 13:52:03 51°12.993 2°50.091 21.249451 0.005106 0.031108  
2001-11-29 13:53:03 51°13.119 2°50.418 21.878731 0.005106 0.031107  
2001-11-29 13:54:03 51°13.233 2°50.757 21.837974 0.005007 0.030651  
2001-11-29 13:55:03 51°13.352 2°51.098 21.579528 0.005007 0.030651  
2001-11-29 13:56:03 51°13.467 2°51.439 21.154691 0.005007 0.030651  
2001-11-29 13:57:03 51°13.592 2°51.77 21.698973 0.005007 0.030651  
2001-11-29 13:58:03 51°13.712 2°52.103 21.908161 0.005007 0.030654  
2001-11-29 13:59:03 51°13.835 2°52.435 21.712167 0.005007 0.030653  
2001-11-29 14:00:03 51°13.956 2°52.775 21.803072 0.005007 0.030653  
2001-11-29 14:01:03 51°14.054 2°53.131 21.503669 0.005007 0.030653  
2001-11-29 14:02:03 51°14.157 2°53.481 21.562432 0.005007 0.030653  
2001-11-29 14:03:03 51°14.258 2°53.827 21.664161 0.005007 0.030653  
2001-11-29 14:04:03 51°14.332 2°54.049 21.343728 0.005007 0.030654  
2001-11-29 14:05:03 51°14.381 2°54.205 21.516503 0.005007 0.030653  
2001-11-29 14:06:03 51°14.42 2°54.343 21.727569 0.005007 0.030653  
2001-11-29 14:07:03 51°14.455 2°54.476 21.59223 0.005007 0.030653  
2001-11-29 14:08:03 51°14.508 2°54.578 21.618812 0.005007 0.030652  
2001-11-29 14:09:03 51°14.58 2°54.627 21.613828 0.005007 0.030652  
2001-11-29 14:10:03 51°14.644 2°54.657 21.998581 0.005007 0.030651  
2001-11-29 14:11:03 51°14.692 2°54.672 21.687002 0.005007 0.030651  
2001-11-29 14:12:03 51°14.728 2°54.685 22.29106 0.005007 0.03065  
2001-11-29 14:13:03 51°14.759 2°54.7 21.750508 0.005007 0.030649  
2001-11-29 14:14:03 51°14.786 2°54.719 21.617981 0.005007 0.030648  
2001-11-29 14:15:03 51°14.81 2°54.74 21.746126 0.005007 0.030647  
2001-11-29 14:16:03 51°14.834 2°54.765 21.231002 0.005007 0.030646  
2001-11-29 14:17:03 51°14.855 2°54.791 21.561719 0.005007 0.030645  
2001-11-29 14:18:03 51°14.876 2°54.819 21.493171 0.004908 0.030189  
2001-11-29 14:19:03 51°14.896 2°54.848 21.489209 0.004908 0.030188  
2001-11-29 14:20:03 51°14.916 2°54.881 21.531671 0.004908 0.030187  
2001-11-29 14:21:03 51°14.932 2°54.918 21.210281 0.004908 0.030186  
2001-11-29 14:22:03 51°14.95 2°54.951 21.913754 0.004908 0.030186  
2001-11-29 14:23:03 51°14.969 2°54.981 21.820978 0.004908 0.030185  
2001-11-29 14:24:03 51°14.991 2°55.012 21.611376 0.004908 0.030184  
2001-11-29 14:25:03 51°15.011 2°55.04 21.636132 0.004908 0.030183  
2001-11-29 14:26:03 51°15.031 2°55.07 22.085153 0.004908 0.030183  
2001-11-29 14:27:03 51°15.049 2°55.098 21.834071 0.004908 0.030182  
2001-11-29 14:28:03 51°15.069 2°55.128 21.780978 0.004908 0.030181  
2001-11-29 14:29:03 51°15.088 2°55.157 22.11929 0.004908 0.030181  
2001-11-29 14:30:03 51°15.107 2°55.187 21.539788 0.004908 0.03018  
2001-11-29 14:31:03 51°15.125 2°55.218 21.677479 0.004908 0.030179  
2001-11-29 14:32:03 51°15.143 2°55.248 21.305763 0.004908 0.030179  
2001-11-29 14:33:03 51°15.162 2°55.277 21.643447 0.004908 0.030178  
2001-11-29 14:34:03 51°15.181 2°55.304 21.63803 0.004908 0.030177  
2001-11-29 14:35:03 51°15.198 2°55.33 21.842823 0.004908 0.030176  
2001-11-29 14:36:03 51°15.216 2°55.356 21.582654 0.004908 0.030176  
2001-11-29 14:37:03 51°15.234 2°55.382 21.433915 0.004908 0.030175  
2001-11-29 14:38:03 51°15.251 2°55.407 21.577471 0.004908 0.030174  
2001-11-29 14:39:02 51°15.269 2°55.43 21.708849 0.004908 0.030174  
2001-11-29 14:40:03 51°15.288 2°55.453 21.648586 0.004908 0.030173  
2001-11-29 14:41:03 51°15.308 2°55.477 21.93872 0.004908 0.030172  
2001-11-29 14:42:03 51°15.326 2°55.502 21.843454 0.004908 0.030171  
2001-11-29 14:43:03 51°15.343 2°55.528 21.097025 0.004908 0.030171  
2001-11-29 14:44:03 51°15.36 2°55.553 21.795458 0.004908 0.03017  
2001-11-29 14:45:03 51°15.377 2°55.578 21.365085 0.004908 0.030169  
2001-11-29 14:46:03 51°15.394 2°55.603 21.629924 0.004908 0.030169  
2001-11-29 14:47:03 51°15.408 2°55.628 21.855951 0.00481 0.029713  
2001-11-29 14:48:03 51°15.424 2°55.655 21.605482 0.00481 0.029713  
2001-11-29 14:49:03 51°15.438 2°55.679 21.427928 0.004908 0.030166  
2001-11-29 14:50:03 51°15.456 2°55.701 21.819795 0.004908 0.030166  
2001-11-29 14:51:03 51°15.489 2°55.686 21.744587 0.00481 0.029711  
2001-11-29 14:52:03 51°15.513 2°55.641 21.622253 0.00481 0.029711  
2001-11-29 14:53:03 51°15.51 2°55.592 21.989453 0.00481 0.02971  
2001-11-29 14:54:03 51°15.48 2°55.554 21.570783 0.00481 0.029709  
2001-11-29 14:55:03 51°15.437 2°55.524 21.671551 0.00481 0.029709  
2001-11-29 14:56:03 51°15.399 2°55.504 22.09529 0.00481 0.029708  
2001-11-29 14:57:03 51°15.378 2°55.505 22.063186 0.00481 0.029708  
2001-11-29 14:58:02 51°15.367 2°55.519 21.974265 0.00481 0.029707  
2001-11-29 14:59:03 51°15.365 2°55.538 21.979066 0.00481 0.029706  
2001-11-29 15:00:03 51°15.365 2°55.561 21.871677 0.00481 0.029706  
2001-11-29 15:01:03 51°15.367 2°55.58 21.531077 0.00481 0.029706  
2001-11-29 15:02:03 51°15.371 2°55.603 21.755245 0.00481 0.029705  
2001-11-29 15:03:02 51°15.376 2°55.631 21.990083 0.00481 0.029705  
2001-11-29 15:04:03 51°15.349 2°55.63 21.698301 0.00481 0.029704  
2001-11-29 15:05:03 51°15.335 2°55.617 21.829496 0.00481 0.029704  
2001-11-29 15:06:03 51°15.328 2°55.612 21.901425 0.00481 0.029704  
2001-11-29 15:07:02 51°15.323 2°55.606 21.934468 0.00481 0.029703  
2001-11-29 15:08:03 51°15.323 2°55.606 21.867499 0.00481 0.029703  
2001-11-29 15:09:03 51°15.325 2°55.608 21.963639 0.00481 0.029703  
2001-11-29 15:10:03 51°15.324 2°55.617 21.863755 0.00481 0.029702  
2001-11-29 15:11:03 51°15.321 2°55.628 21.805675 0.00481 0.029701  
2001-11-29 15:12:03 51°15.312 2°55.641 21.450686 0.00481 0.029701  
2001-11-29 15:13:03 51°15.299 2°55.644 22.134134 0.00481 0.0297  
2001-11-29 15:14:02 51°15.282 2°55.632 22.041841 0.00481 0.029699  
2001-11-29 15:15:03 51°15.273 2°55.606 22.009241 0.00481 0.029699  
2001-11-29 15:16:03 51°15.279 2°55.591 21.613749 0.00481 0.029698  
2001-11-29 15:17:03 51°15.22 2°55.521 22.111592 0.00481 0.029697  
2001-11-29 15:18:03 51°15.104 2°55.476 22.030792 0.00481 0.029696  
2001-11-29 15:19:03 51°15.02 2°55.445 21.954507 0.00481 0.029696  
2001-11-29 15:20:03 51°14.947 2°55.405 22.001295 0.00481 0.029695  
2001-11-29 15:21:02 51°14.878 2°55.352 21.768271 0.00481 0.029694  
2001-11-29 15:22:03 51°14.792 2°55.26 22.063029 0.00481 0.029694  
2001-11-29 15:23:03 51°14.662 2°55.118 22.205207 0.00481 0.029693  
2001-11-29 15:24:03 51°14.496 2°55.046 22.067509 0.00481 0.029693  
2001-11-29 15:25:03 51°14.337 2°55.137 21.814116 0.00481 0.029692  
2001-11-29 15:26:03 51°14.243 2°55.292 23.032162 0.00481 0.029692  
2001-11-29 15:27:03 51°14.182 2°55.361 22.199597 0.00481 0.029691  
2001-11-29 15:28:03 51°14.125 2°55.408 22.433763 0.00481 0.02969  
2001-11-29 15:29:03 51°14.055 2°55.463 22.812897 0.00481 0.02969  
2001-11-29 15:30:03 51°13.977 2°55.522 22.979717 0.00481 0.029689  
2001-11-29 15:31:03 51°13.896 2°55.584 22.629976 0.00481 0.029688  
2001-11-29 15:32:03 51°13.816 2°55.646 22.933564 0.00481 0.029687  
2001-11-29 15:33:03 51°13.758 2°55.703 22.564241 0.00481 0.029686  
2001-11-29 15:34:23 51°13.721 2°55.78 22.604118 0.00481 0.029685  
2001-11-29 15:35:23 51°13.704 2°55.834 22.734404 0.004711 0.029233  
2001-11-29 15:36:23 51°13.697 2°55.88 22.678 0.00481 0.029683  
2001-11-29 15:37:23 51°13.693 2°55.896 22.298151 0.004711 0.029231  
2001-11-29 15:38:23 51°13.689 2°55.899 22.96955 0.004711 0.02923  
2001-11-29 15:39:23 51°13.687 2°55.906 22.397664 0.004711 0.029229